sensor_id;sensor_type;location;lat;lon;timestamp;temperature;humidity
64858;SHT30;51335;51.148;6.950;2023-07-28T06:52:51;18.77;99.99
64858;SHT30;51335;51.148;6.950;2023-07-28T06:53:21;18.80;99.99
64858;SHT30;51335;51.148;6.950;2023-07-28T06:53:51;18.70;99.99
64858;SHT30;51335;51.148;6.950;2023-07-28T06:54:22;18.72;99.99
64858;SHT30;51335;51.148;6.950;2023-07-28T06:54:52;18.70;99.99
64858;SHT30;51335;51.148;6.950;2023-07-28T06:55:22;18.65;99.99
64858;SHT30;51335;51.148;6.950;2023-07-28T06:55:53;18.74;99.99
64858;SHT30;51335;51.148;6.950;2023-07-28T06:56:23;18.71;99.99
64858;SHT30;51335;51.148;6.950;2023-07-28T06:56:53;18.72;99.99
64858;SHT30;51335;51.148;6.950;2023-07-28T06:57:23;18.75;99.99
64858;SHT30;51335;51.148;6.950;2023-07-28T06:57:54;18.74;99.99
64858;SHT30;51335;51.148;6.950;2023-07-28T06:58:24;18.75;99.99
64858;SHT30;51335;51.148;6.950;2023-07-28T06:58:54;18.80;99.99
64858;SHT30;51335;51.148;6.950;2023-07-28T06:59:24;18.81;99.99
64858;SHT30;51335;51.148;6.950;2023-07-28T06:59:55;18.84;99.99
64858;SHT30;51335;51.148;6.950;2023-07-28T07:00:25;18.85;99.99
64858;SHT30;51335;51.148;6.950;2023-07-28T07:00:55;18.87;99.99
64858;SHT30;51335;51.148;6.950;2023-07-28T07:01:25;18.91;99.99
64858;SHT30;51335;51.148;6.950;2023-07-28T07:01:56;18.91;99.99
64858;SHT30;51335;51.148;6.950;2023-07-28T07:02:26;18.90;99.99
64858;SHT30;51335;51.148;6.950;2023-07-28T07:02:56;18.92;99.99
64858;SHT30;51335;51.148;6.950;2023-07-28T07:03:26;18.94;99.99
64858;SHT30;51335;51.148;6.950;2023-07-28T07:03:57;19.04;99.99
64858;SHT30;51335;51.148;6.950;2023-07-28T07:04:27;19.00;99.99
64858;SHT30;51335;51.148;6.950;2023-07-28T07:04:57;19.00;99.99
64858;SHT30;51335;51.148;6.950;2023-07-28T07:05:27;19.01;99.99
64858;SHT30;51335;51.148;6.950;2023-07-28T07:05:58;18.98;99.99
64858;SHT30;51335;51.148;6.950;2023-07-28T07:06:28;19.01;99.99
64858;SHT30;51335;51.148;6.950;2023-07-28T07:06:58;19.00;99.99
64858;SHT30;51335;51.148;6.950;2023-07-28T07:07:28;19.00;99.99
64858;SHT30;51335;51.148;6.950;2023-07-28T07:07:59;19.00;99.99
64858;SHT30;51335;51.148;6.950;2023-07-28T07:08:29;19.02;99.99
64858;SHT30;51335;51.148;6.950;2023-07-28T07:08:59;19.00;99.99
64858;SHT30;51335;51.148;6.950;2023-07-28T07:09:30;19.01;99.99
64858;SHT30;51335;51.148;6.950;2023-07-28T07:10:00;19.02;99.99
64858;SHT30;51335;51.148;6.950;2023-07-28T07:10:30;19.00;99.99
64858;SHT30;51335;51.148;6.950;2023-07-28T07:11:00;19.07;99.99
64858;SHT30;51335;51.148;6.950;2023-07-28T07:11:31;19.00;99.99
64858;SHT30;51335;51.148;6.950;2023-07-28T07:12:01;19.05;99.99
64858;SHT30;51335;51.148;6.950;2023-07-28T07:12:31;18.98;99.99
64858;SHT30;51335;51.148;6.950;2023-07-28T07:13:01;19.04;99.99
64858;SHT30;51335;51.148;6.950;2023-07-28T07:13:32;19.04;99.99
64858;SHT30;51335;51.148;6.950;2023-07-28T07:14:02;19.08;99.99
64858;SHT30;51335;51.148;6.950;2023-07-28T07:14:32;19.02;99.99
64858;SHT30;51335;51.148;6.950;2023-07-28T07:15:03;19.02;99.99
64858;SHT30;51335;51.148;6.950;2023-07-28T07:15:34;19.00;99.99
64858;SHT30;51335;51.148;6.950;2023-07-28T07:16:05;18.95;99.99
64858;SHT30;51335;51.148;6.950;2023-07-28T07:16:35;18.84;99.99
64858;SHT30;51335;51.148;6.950;2023-07-28T07:17:05;18.87;99.99
64858;SHT30;51335;51.148;6.950;2023-07-28T07:17:35;18.91;99.99
64858;SHT30;51335;51.148;6.950;2023-07-28T07:18:06;18.92;99.99
64858;SHT30;51335;51.148;6.950;2023-07-28T07:18:36;18.97;99.99
64858;SHT30;51335;51.148;6.950;2023-07-28T07:19:06;18.95;99.99
64858;SHT30;51335;51.148;6.950;2023-07-28T07:19:36;18.97;99.99
64858;SHT30;51335;51.148;6.950;2023-07-28T07:20:07;18.98;99.99
64858;SHT30;51335;51.148;6.950;2023-07-28T07:20:38;19.00;99.99
64858;SHT30;51335;51.148;6.950;2023-07-28T07:21:08;18.95;99.99
64858;SHT30;51335;51.148;6.950;2023-07-28T07:21:39;18.97;99.99
64858;SHT30;51335;51.148;6.950;2023-07-28T07:22:09;19.00;99.99
64858;SHT30;51335;51.148;6.950;2023-07-28T07:22:39;19.01;99.99
64858;SHT30;51335;51.148;6.950;2023-07-28T07:23:09;18.97;99.99
64858;SHT30;51335;51.148;6.950;2023-07-28T07:23:40;19.00;99.99
64858;SHT30;51335;51.148;6.950;2023-07-28T07:24:10;19.04;99.99
64858;SHT30;51335;51.148;6.950;2023-07-28T07:24:40;19.08;99.99
64858;SHT30;51335;51.148;6.950;2023-07-28T07:25:11;19.07;99.99
64858;SHT30;51335;51.148;6.950;2023-07-28T07:25:41;19.12;99.99
64858;SHT30;51335;51.148;6.950;2023-07-28T07:26:11;19.12;99.99
64858;SHT30;51335;51.148;6.950;2023-07-28T07:26:42;19.15;99.99
64858;SHT30;51335;51.148;6.950;2023-07-28T07:27:12;19.19;99.99
64858;SHT30;51335;51.148;6.950;2023-07-28T07:27:42;19.19;99.99
64858;SHT30;51335;51.148;6.950;2023-07-28T07:28:12;19.19;99.99
64858;SHT30;51335;51.148;6.950;2023-07-28T07:28:43;19.23;99.99
64858;SHT30;51335;51.148;6.950;2023-07-28T07:29:13;19.19;99.99
64858;SHT30;51335;51.148;6.950;2023-07-28T07:29:43;19.16;99.99
64858;SHT30;51335;51.148;6.950;2023-07-28T07:30:14;19.15;99.99
64858;SHT30;51335;51.148;6.950;2023-07-28T07:30:44;19.22;99.99
64858;SHT30;51335;51.148;6.950;2023-07-28T07:31:14;19.22;99.99
64858;SHT30;51335;51.148;6.950;2023-07-28T07:31:45;19.25;99.99
64858;SHT30;51335;51.148;6.950;2023-07-28T07:32:15;19.26;99.99
64858;SHT30;51335;51.148;6.950;2023-07-28T07:32:45;19.26;99.99
64858;SHT30;51335;51.148;6.950;2023-07-28T07:33:15;19.29;99.99
64858;SHT30;51335;51.148;6.950;2023-07-28T07:33:46;19.35;99.99
64858;SHT30;51335;51.148;6.950;2023-07-28T07:34:16;19.40;99.99
64858;SHT30;51335;51.148;6.950;2023-07-28T07:34:46;19.39;99.99
64858;SHT30;51335;51.148;6.950;2023-07-28T07:35:17;19.29;99.84
64858;SHT30;51335;51.148;6.950;2023-07-28T07:35:47;19.08;99.92
64858;SHT30;51335;51.148;6.950;2023-07-28T07:36:18;19.15;99.99
64858;SHT30;51335;51.148;6.950;2023-07-28T07:36:49;19.28;99.99
64858;SHT30;51335;51.148;6.950;2023-07-28T07:37:20;19.35;99.83
64858;SHT30;51335;51.148;6.950;2023-07-28T07:37:50;19.32;99.62
64858;SHT30;51335;51.148;6.950;2023-07-28T07:38:20;19.39;99.57
64858;SHT30;51335;51.148;6.950;2023-07-28T07:38:50;19.45;99.49
64858;SHT30;51335;51.148;6.950;2023-07-28T07:39:21;19.46;99.47
64858;SHT30;51335;51.148;6.950;2023-07-28T07:39:51;19.50;99.50
64858;SHT30;51335;51.148;6.950;2023-07-28T07:40:21;19.56;99.34
64858;SHT30;51335;51.148;6.950;2023-07-28T07:40:51;19.57;99.26
64858;SHT30;51335;51.148;6.950;2023-07-28T07:41:22;19.59;99.38
64858;SHT30;51335;51.148;6.950;2023-07-28T07:41:52;19.57;99.32
64858;SHT30;51335;51.148;6.950;2023-07-28T07:42:23;19.57;99.49
64858;SHT30;51335;51.148;6.950;2023-07-28T07:42:53;19.53;99.20
64858;SHT30;51335;51.148;6.950;2023-07-28T07:43:23;19.56;99.26
64858;SHT30;51335;51.148;6.950;2023-07-28T07:43:54;19.57;99.27
64858;SHT30;51335;51.148;6.950;2023-07-28T07:44:24;19.59;99.27
64858;SHT30;51335;51.148;6.950;2023-07-28T07:44:54;19.62;99.24
64858;SHT30;51335;51.148;6.950;2023-07-28T07:45:25;19.49;98.74
64858;SHT30;51335;51.148;6.950;2023-07-28T07:45:55;19.42;99.13
64858;SHT30;51335;51.148;6.950;2023-07-28T07:46:25;19.46;99.36
64858;SHT30;51335;51.148;6.950;2023-07-28T07:46:55;19.59;98.84
64858;SHT30;51335;51.148;6.950;2023-07-28T07:47:26;19.62;98.74
64858;SHT30;51335;51.148;6.950;2023-07-28T07:47:56;19.62;98.83
64858;SHT30;51335;51.148;6.950;2023-07-28T07:48:26;19.65;98.89
64858;SHT30;51335;51.148;6.950;2023-07-28T07:48:57;19.67;98.88
64858;SHT30;51335;51.148;6.950;2023-07-28T07:49:27;19.63;98.99
64858;SHT30;51335;51.148;6.950;2023-07-28T07:49:57;19.70;98.59
64858;SHT30;51335;51.148;6.950;2023-07-28T07:50:27;19.73;98.30
64858;SHT30;51335;51.148;6.950;2023-07-28T07:50:58;19.73;98.35
64858;SHT30;51335;51.148;6.950;2023-07-28T07:51:28;19.76;98.39
64858;SHT30;51335;51.148;6.950;2023-07-28T07:51:58;19.77;98.37
64858;SHT30;51335;51.148;6.950;2023-07-28T07:52:28;19.81;98.27
64858;SHT30;51335;51.148;6.950;2023-07-28T07:52:59;19.86;98.27
64858;SHT30;51335;51.148;6.950;2023-07-28T07:53:29;19.86;98.24
64858;SHT30;51335;51.148;6.950;2023-07-28T07:53:59;19.87;98.27
64858;SHT30;51335;51.148;6.950;2023-07-28T07:54:30;19.88;98.38
64858;SHT30;51335;51.148;6.950;2023-07-28T07:55:00;19.88;98.38
64858;SHT30;51335;51.148;6.950;2023-07-28T07:55:30;19.83;98.27
64858;SHT30;51335;51.148;6.950;2023-07-28T07:56:01;19.84;98.57
64858;SHT30;51335;51.148;6.950;2023-07-28T07:56:31;19.88;98.55
64858;SHT30;51335;51.148;6.950;2023-07-28T07:57:02;19.90;98.53
64858;SHT30;51335;51.148;6.950;2023-07-28T07:57:32;19.91;98.60
64858;SHT30;51335;51.148;6.950;2023-07-28T07:58:03;19.93;98.60
64858;SHT30;51335;51.148;6.950;2023-07-28T07:58:33;19.93;98.31
64858;SHT30;51335;51.148;6.950;2023-07-28T07:59:04;19.97;98.23
64858;SHT30;51335;51.148;6.950;2023-07-28T07:59:34;19.98;98.29
64858;SHT30;51335;51.148;6.950;2023-07-28T08:00:05;20.01;98.00
64858;SHT30;51335;51.148;6.950;2023-07-28T08:00:37;19.88;97.54
64858;SHT30;51335;51.148;6.950;2023-07-28T08:01:07;19.56;97.96
64858;SHT30;51335;51.148;6.950;2023-07-28T08:01:38;19.66;98.30
64858;SHT30;51335;51.148;6.950;2023-07-28T08:02:08;19.66;98.40
64858;SHT30;51335;51.148;6.950;2023-07-28T08:02:38;19.70;98.52
64858;SHT30;51335;51.148;6.950;2023-07-28T08:03:09;19.80;97.70
64858;SHT30;51335;51.148;6.950;2023-07-28T08:03:39;19.80;97.93
64858;SHT30;51335;51.148;6.950;2023-07-28T08:04:09;19.88;97.70
64858;SHT30;51335;51.148;6.950;2023-07-28T08:04:40;19.83;97.94
64858;SHT30;51335;51.148;6.950;2023-07-28T08:05:10;19.88;98.00
64858;SHT30;51335;51.148;6.950;2023-07-28T08:05:40;19.87;98.06
64858;SHT30;51335;51.148;6.950;2023-07-28T08:06:10;19.94;97.93
64858;SHT30;51335;51.148;6.950;2023-07-28T08:06:41;19.90;98.10
64858;SHT30;51335;51.148;6.950;2023-07-28T08:07:11;19.91;98.12
64858;SHT30;51335;51.148;6.950;2023-07-28T08:07:41;19.96;98.19
64858;SHT30;51335;51.148;6.950;2023-07-28T08:08:12;19.97;98.03
64858;SHT30;51335;51.148;6.950;2023-07-28T08:08:42;19.88;97.84
64858;SHT30;51335;51.148;6.950;2023-07-28T08:09:12;19.96;97.88
64858;SHT30;51335;51.148;6.950;2023-07-28T08:09:42;20.01;97.76
64858;SHT30;51335;51.148;6.950;2023-07-28T08:10:13;20.03;97.65
64858;SHT30;51335;51.148;6.950;2023-07-28T08:10:43;20.04;97.71
64858;SHT30;51335;51.148;6.950;2023-07-28T08:11:14;19.98;98.09
64858;SHT30;51335;51.148;6.950;2023-07-28T08:11:44;19.96;97.97
64858;SHT30;51335;51.148;6.950;2023-07-28T08:12:15;20.01;97.79
64858;SHT30;51335;51.148;6.950;2023-07-28T08:12:45;19.90;97.73
64858;SHT30;51335;51.148;6.950;2023-07-28T08:13:16;19.88;97.83
64858;SHT30;51335;51.148;6.950;2023-07-28T08:13:46;19.88;97.89
64858;SHT30;51335;51.148;6.950;2023-07-28T08:14:16;19.94;97.75
64858;SHT30;51335;51.148;6.950;2023-07-28T08:14:47;19.96;97.66
64858;SHT30;51335;51.148;6.950;2023-07-28T08:15:17;19.96;97.69
64858;SHT30;51335;51.148;6.950;2023-07-28T08:15:47;19.98;97.52
64858;SHT30;51335;51.148;6.950;2023-07-28T08:16:17;19.88;97.51
64858;SHT30;51335;51.148;6.950;2023-07-28T08:16:48;19.93;97.38
64858;SHT30;51335;51.148;6.950;2023-07-28T08:17:18;19.93;97.32
64858;SHT30;51335;51.148;6.950;2023-07-28T08:17:48;19.96;97.28
64858;SHT30;51335;51.148;6.950;2023-07-28T08:18:18;19.96;97.19
64858;SHT30;51335;51.148;6.950;2023-07-28T08:18:49;19.98;97.30
64858;SHT30;51335;51.148;6.950;2023-07-28T08:19:19;19.98;97.31
64858;SHT30;51335;51.148;6.950;2023-07-28T08:19:49;19.98;97.29
64858;SHT30;51335;51.148;6.950;2023-07-28T08:20:20;20.06;97.36
64858;SHT30;51335;51.148;6.950;2023-07-28T08:20:50;20.03;97.25
64858;SHT30;51335;51.148;6.950;2023-07-28T08:21:20;20.03;97.19
64858;SHT30;51335;51.148;6.950;2023-07-28T08:21:51;20.03;97.27
64858;SHT30;51335;51.148;6.950;2023-07-28T08:22:21;20.04;96.96
64858;SHT30;51335;51.148;6.950;2023-07-28T08:22:51;20.01;97.06
64858;SHT30;51335;51.148;6.950;2023-07-28T08:23:21;20.04;97.01
64858;SHT30;51335;51.148;6.950;2023-07-28T08:23:52;20.01;97.12
64858;SHT30;51335;51.148;6.950;2023-07-28T08:24:22;20.10;96.89
64858;SHT30;51335;51.148;6.950;2023-07-28T08:24:52;20.06;96.75
64858;SHT30;51335;51.148;6.950;2023-07-28T08:25:23;20.03;97.13
64858;SHT30;51335;51.148;6.950;2023-07-28T08:25:53;19.98;96.96
64858;SHT30;51335;51.148;6.950;2023-07-28T08:26:23;19.98;96.73
64858;SHT30;51335;51.148;6.950;2023-07-28T08:26:53;20.10;96.55
64858;SHT30;51335;51.148;6.950;2023-07-28T08:27:24;20.07;96.72
64858;SHT30;51335;51.148;6.950;2023-07-28T08:27:54;20.15;96.44
64858;SHT30;51335;51.148;6.950;2023-07-28T08:28:24;20.15;96.31
64858;SHT30;51335;51.148;6.950;2023-07-28T08:28:54;20.15;96.39
64858;SHT30;51335;51.148;6.950;2023-07-28T08:29:25;20.13;96.53
64858;SHT30;51335;51.148;6.950;2023-07-28T08:29:55;20.17;96.64
64858;SHT30;51335;51.148;6.950;2023-07-28T08:30:25;20.22;96.51
64858;SHT30;51335;51.148;6.950;2023-07-28T08:30:56;20.21;96.54
64858;SHT30;51335;51.148;6.950;2023-07-28T08:31:26;20.25;96.59
64858;SHT30;51335;51.148;6.950;2023-07-28T08:31:56;20.25;96.46
64858;SHT30;51335;51.148;6.950;2023-07-28T08:32:26;20.28;96.64
64858;SHT30;51335;51.148;6.950;2023-07-28T08:32:57;20.24;96.44
64858;SHT30;51335;51.148;6.950;2023-07-28T08:33:27;20.29;96.60
64858;SHT30;51335;51.148;6.950;2023-07-28T08:33:58;20.28;96.27
64858;SHT30;51335;51.148;6.950;2023-07-28T08:34:28;20.28;96.25
64858;SHT30;51335;51.148;6.950;2023-07-28T08:34:58;20.31;96.07
64858;SHT30;51335;51.148;6.950;2023-07-28T08:35:28;20.38;96.11
64858;SHT30;51335;51.148;6.950;2023-07-28T08:35:59;20.35;96.14
64858;SHT30;51335;51.148;6.950;2023-07-28T08:36:29;20.42;96.03
64858;SHT30;51335;51.148;6.950;2023-07-28T08:36:59;20.39;95.90
64858;SHT30;51335;51.148;6.950;2023-07-28T08:37:30;20.32;95.99
64858;SHT30;51335;51.148;6.950;2023-07-28T08:38:00;20.36;96.06
64858;SHT30;51335;51.148;6.950;2023-07-28T08:38:30;20.34;96.03
64858;SHT30;51335;51.148;6.950;2023-07-28T08:39:01;20.32;96.00
64858;SHT30;51335;51.148;6.950;2023-07-28T08:39:32;20.34;96.08
64858;SHT30;51335;51.148;6.950;2023-07-28T08:40:03;20.28;96.06
64858;SHT30;51335;51.148;6.950;2023-07-28T08:40:34;20.32;96.13
64858;SHT30;51335;51.148;6.950;2023-07-28T08:41:04;20.32;96.18
64858;SHT30;51335;51.148;6.950;2023-07-28T08:41:34;20.32;96.27
64858;SHT30;51335;51.148;6.950;2023-07-28T08:42:05;20.32;96.23
64858;SHT30;51335;51.148;6.950;2023-07-28T08:42:37;20.35;96.28
64858;SHT30;51335;51.148;6.950;2023-07-28T08:43:08;20.32;96.14
64858;SHT30;51335;51.148;6.950;2023-07-28T08:43:38;20.34;96.28
64858;SHT30;51335;51.148;6.950;2023-07-28T08:44:08;20.34;96.32
64858;SHT30;51335;51.148;6.950;2023-07-28T08:44:38;20.39;96.34
64858;SHT30;51335;51.148;6.950;2023-07-28T08:45:09;20.39;96.17
64858;SHT30;51335;51.148;6.950;2023-07-28T08:45:39;20.38;95.98
64858;SHT30;51335;51.148;6.950;2023-07-28T08:46:09;20.41;96.20
64858;SHT30;51335;51.148;6.950;2023-07-28T08:46:40;20.42;96.13
64858;SHT30;51335;51.148;6.950;2023-07-28T08:47:10;20.46;95.94
64858;SHT30;51335;51.148;6.950;2023-07-28T08:47:40;20.52;95.88
64858;SHT30;51335;51.148;6.950;2023-07-28T08:48:11;20.53;95.84
64858;SHT30;51335;51.148;6.950;2023-07-28T08:48:41;20.53;95.69
64858;SHT30;51335;51.148;6.950;2023-07-28T08:49:11;20.59;95.69
64858;SHT30;51335;51.148;6.950;2023-07-28T08:49:41;20.59;95.63
64858;SHT30;51335;51.148;6.950;2023-07-28T08:50:12;20.59;95.56
64858;SHT30;51335;51.148;6.950;2023-07-28T08:50:42;20.59;95.57
64858;SHT30;51335;51.148;6.950;2023-07-28T08:51:13;20.62;95.69
64858;SHT30;51335;51.148;6.950;2023-07-28T08:51:49;20.65;95.71
64858;SHT30;51335;51.148;6.950;2023-07-28T08:52:19;20.68;95.62
64858;SHT30;51335;51.148;6.950;2023-07-28T08:52:49;20.68;95.43
64858;SHT30;51335;51.148;6.950;2023-07-28T08:53:19;20.68;95.37
64858;SHT30;51335;51.148;6.950;2023-07-28T08:53:50;20.65;95.41
64858;SHT30;51335;51.148;6.950;2023-07-28T08:54:20;20.63;95.36
64858;SHT30;51335;51.148;6.950;2023-07-28T08:54:50;20.65;95.52
64858;SHT30;51335;51.148;6.950;2023-07-28T08:55:20;20.66;95.50
64858;SHT30;51335;51.148;6.950;2023-07-28T08:55:51;20.65;95.61
64858;SHT30;51335;51.148;6.950;2023-07-28T08:56:23;20.71;95.71
64858;SHT30;51335;51.148;6.950;2023-07-28T08:56:54;20.76;95.61
64858;SHT30;51335;51.148;6.950;2023-07-28T08:57:24;20.79;95.39
64858;SHT30;51335;51.148;6.950;2023-07-28T08:57:54;20.87;95.37
64858;SHT30;51335;51.148;6.950;2023-07-28T08:58:24;21.00;94.97
64858;SHT30;51335;51.148;6.950;2023-07-28T08:58:59;21.04;94.72
64858;SHT30;51335;51.148;6.950;2023-07-28T08:59:29;21.08;94.61
64858;SHT30;51335;51.148;6.950;2023-07-28T09:00:09;21.11;94.37
64858;SHT30;51335;51.148;6.950;2023-07-28T09:00:40;21.20;93.83
64858;SHT30;51335;51.148;6.950;2023-07-28T09:01:10;21.24;93.79
64858;SHT30;51335;51.148;6.950;2023-07-28T09:01:41;21.20;93.91
64858;SHT30;51335;51.148;6.950;2023-07-28T09:02:11;21.20;93.93
64858;SHT30;51335;51.148;6.950;2023-07-28T09:02:41;21.23;94.09
64858;SHT30;51335;51.148;6.950;2023-07-28T09:03:12;21.21;94.02
64858;SHT30;51335;51.148;6.950;2023-07-28T09:03:42;21.26;94.25
64858;SHT30;51335;51.148;6.950;2023-07-28T09:04:12;21.28;94.23
64858;SHT30;51335;51.148;6.950;2023-07-28T09:04:44;21.28;94.06
64858;SHT30;51335;51.148;6.950;2023-07-28T09:05:21;21.30;94.11
64858;SHT30;51335;51.148;6.950;2023-07-28T09:05:51;21.33;93.94
64858;SHT30;51335;51.148;6.950;2023-07-28T09:06:28;21.34;93.54
64858;SHT30;51335;51.148;6.950;2023-07-28T09:06:58;21.40;93.57
64858;SHT30;51335;51.148;6.950;2023-07-28T09:07:34;21.44;93.39
64858;SHT30;51335;51.148;6.950;2023-07-28T09:08:05;21.48;93.30
64858;SHT30;51335;51.148;6.950;2023-07-28T09:08:36;21.54;93.29
64858;SHT30;51335;51.148;6.950;2023-07-28T09:09:07;21.55;93.15
64858;SHT30;51335;51.148;6.950;2023-07-28T09:09:39;21.63;93.10
64858;SHT30;51335;51.148;6.950;2023-07-28T09:10:09;21.61;92.70
64858;SHT30;51335;51.148;6.950;2023-07-28T09:10:49;21.68;92.66
64858;SHT30;51335;51.148;6.950;2023-07-28T09:11:24;21.69;92.59
64858;SHT30;51335;51.148;6.950;2023-07-28T09:11:54;21.71;92.10
64858;SHT30;51335;51.148;6.950;2023-07-28T09:12:24;21.72;91.71
64858;SHT30;51335;51.148;6.950;2023-07-28T09:12:55;21.79;91.83
64858;SHT30;51335;51.148;6.950;2023-07-28T09:13:25;21.88;91.66
64858;SHT30;51335;51.148;6.950;2023-07-28T09:13:55;21.86;90.99
64858;SHT30;51335;51.148;6.950;2023-07-28T09:14:25;22.05;91.03
64858;SHT30;51335;51.148;6.950;2023-07-28T09:14:56;22.09;90.96
64858;SHT30;51335;51.148;6.950;2023-07-28T09:15:35;22.17;90.97
64858;SHT30;51335;51.148;6.950;2023-07-28T09:16:05;22.21;90.97
64858;SHT30;51335;51.148;6.950;2023-07-28T09:16:39;22.27;90.43
64858;SHT30;51335;51.148;6.950;2023-07-28T09:17:11;22.30;90.17
64858;SHT30;51335;51.148;6.950;2023-07-28T09:17:45;22.43;90.43
64858;SHT30;51335;51.148;6.950;2023-07-28T09:18:16;22.30;89.37
64858;SHT30;51335;51.148;6.950;2023-07-28T09:18:47;22.43;89.57
64858;SHT30;51335;51.148;6.950;2023-07-28T09:19:20;22.48;89.69
64858;SHT30;51335;51.148;6.950;2023-07-28T09:19:52;22.56;89.43
64858;SHT30;51335;51.148;6.950;2023-07-28T09:20:22;22.48;89.47
64858;SHT30;51335;51.148;6.950;2023-07-28T09:20:53;22.56;89.14
64858;SHT30;51335;51.148;6.950;2023-07-28T09:21:23;22.64;88.82
64858;SHT30;51335;51.148;6.950;2023-07-28T09:22:01;22.81;88.59
64858;SHT30;51335;51.148;6.950;2023-07-28T09:22:31;22.83;88.56
64858;SHT30;51335;51.148;6.950;2023-07-28T09:23:02;22.87;87.59
64858;SHT30;51335;51.148;6.950;2023-07-28T09:23:33;22.74;87.25
64858;SHT30;51335;51.148;6.950;2023-07-28T09:24:08;22.87;87.32
64858;SHT30;51335;51.148;6.950;2023-07-28T09:24:38;22.95;87.10
64858;SHT30;51335;51.148;6.950;2023-07-28T09:25:13;23.05;87.30
64858;SHT30;51335;51.148;6.950;2023-07-28T09:25:44;23.08;87.40
64858;SHT30;51335;51.148;6.950;2023-07-28T09:26:15;23.14;87.36
64858;SHT30;51335;51.148;6.950;2023-07-28T09:26:47;23.20;87.11
64858;SHT30;51335;51.148;6.950;2023-07-28T09:27:22;23.20;87.25
64858;SHT30;51335;51.148;6.950;2023-07-28T09:27:53;23.30;87.00
64858;SHT30;51335;51.148;6.950;2023-07-28T09:28:35;23.22;86.83
64858;SHT30;51335;51.148;6.950;2023-07-28T09:29:13;23.36;87.08
64858;SHT30;51335;51.148;6.950;2023-07-28T09:29:47;23.19;86.57
64858;SHT30;51335;51.148;6.950;2023-07-28T09:30:18;23.08;85.95
64858;SHT30;51335;51.148;6.950;2023-07-28T09:30:49;23.09;86.72
64858;SHT30;51335;51.148;6.950;2023-07-28T09:31:29;23.16;86.64
64858;SHT30;51335;51.148;6.950;2023-07-28T09:32:06;23.16;86.98
64858;SHT30;51335;51.148;6.950;2023-07-28T09:32:36;22.98;86.76
64858;SHT30;51335;51.148;6.950;2023-07-28T09:33:07;23.06;86.61
64858;SHT30;51335;51.148;6.950;2023-07-28T09:33:37;22.91;86.90
64858;SHT30;51335;51.148;6.950;2023-07-28T09:34:09;22.61;86.89
64858;SHT30;51335;51.148;6.950;2023-07-28T09:34:39;22.57;87.44
64858;SHT30;51335;51.148;6.950;2023-07-28T09:35:11;22.61;87.75
64858;SHT30;51335;51.148;6.950;2023-07-28T09:35:49;22.63;87.73
64858;SHT30;51335;51.148;6.950;2023-07-28T09:36:20;22.56;88.08
64858;SHT30;51335;51.148;6.950;2023-07-28T09:36:53;22.43;88.74
64858;SHT30;51335;51.148;6.950;2023-07-28T09:37:23;22.50;88.56
64858;SHT30;51335;51.148;6.950;2023-07-28T09:37:54;22.47;88.68
64858;SHT30;51335;51.148;6.950;2023-07-28T09:38:26;22.53;88.92
64858;SHT30;51335;51.148;6.950;2023-07-28T09:38:58;22.54;88.89
64858;SHT30;51335;51.148;6.950;2023-07-28T09:39:28;22.54;88.78
64858;SHT30;51335;51.148;6.950;2023-07-28T09:39:59;22.60;88.84
64858;SHT30;51335;51.148;6.950;2023-07-28T09:40:30;22.61;88.89
64858;SHT30;51335;51.148;6.950;2023-07-28T09:41:01;22.63;88.85
64858;SHT30;51335;51.148;6.950;2023-07-28T09:41:34;22.65;88.77
64858;SHT30;51335;51.148;6.950;2023-07-28T09:42:06;22.67;88.61
64858;SHT30;51335;51.148;6.950;2023-07-28T09:42:42;22.68;88.61
64858;SHT30;51335;51.148;6.950;2023-07-28T09:43:12;22.72;88.45
64858;SHT30;51335;51.148;6.950;2023-07-28T09:43:42;22.68;88.38
64858;SHT30;51335;51.148;6.950;2023-07-28T09:44:13;22.67;88.58
64858;SHT30;51335;51.148;6.950;2023-07-28T09:44:43;22.67;88.82
64858;SHT30;51335;51.148;6.950;2023-07-28T09:45:13;22.63;88.38
64858;SHT30;51335;51.148;6.950;2023-07-28T09:45:44;22.65;87.80
64858;SHT30;51335;51.148;6.950;2023-07-28T09:46:17;22.65;87.82
64858;SHT30;51335;51.148;6.950;2023-07-28T09:46:52;22.71;87.66
64858;SHT30;51335;51.148;6.950;2023-07-28T09:47:24;22.74;87.31
64858;SHT30;51335;51.148;6.950;2023-07-28T09:47:57;22.72;87.48
64858;SHT30;51335;51.148;6.950;2023-07-28T09:48:30;22.67;87.65
64858;SHT30;51335;51.148;6.950;2023-07-28T09:49:05;22.58;87.99
64858;SHT30;51335;51.148;6.950;2023-07-28T09:49:41;22.64;87.74
64858;SHT30;51335;51.148;6.950;2023-07-28T09:50:15;22.65;87.64
64858;SHT30;51335;51.148;6.950;2023-07-28T09:50:45;22.61;87.89
64858;SHT30;51335;51.148;6.950;2023-07-28T09:51:17;22.64;87.94
64858;SHT30;51335;51.148;6.950;2023-07-28T09:51:48;22.61;87.85
64858;SHT30;51335;51.148;6.950;2023-07-28T09:52:21;22.64;87.78
64858;SHT30;51335;51.148;6.950;2023-07-28T09:52:53;22.65;87.63
64858;SHT30;51335;51.148;6.950;2023-07-28T09:53:27;22.63;87.71
64858;SHT30;51335;51.148;6.950;2023-07-28T09:54:04;22.63;87.73
64858;SHT30;51335;51.148;6.950;2023-07-28T09:54:39;22.68;87.87
64858;SHT30;51335;51.148;6.950;2023-07-28T09:55:10;22.71;87.76
64858;SHT30;51335;51.148;6.950;2023-07-28T09:55:41;22.68;87.67
64858;SHT30;51335;51.148;6.950;2023-07-28T09:56:14;22.71;87.47
64858;SHT30;51335;51.148;6.950;2023-07-28T09:56:46;22.68;86.49
64858;SHT30;51335;51.148;6.950;2023-07-28T09:57:20;22.67;86.74
64858;SHT30;51335;51.148;6.950;2023-07-28T09:57:52;22.69;86.73
64858;SHT30;51335;51.148;6.950;2023-07-28T09:58:24;22.75;86.95
64858;SHT30;51335;51.148;6.950;2023-07-28T09:58:56;22.83;86.89
64858;SHT30;51335;51.148;6.950;2023-07-28T09:59:35;22.81;86.13
64858;SHT30;51335;51.148;6.950;2023-07-28T10:00:10;22.97;85.81
64858;SHT30;51335;51.148;6.950;2023-07-28T10:00:42;23.05;85.62
64858;SHT30;51335;51.148;6.950;2023-07-28T10:01:12;23.12;85.51
64858;SHT30;51335;51.148;6.950;2023-07-28T10:01:44;23.25;85.30
64858;SHT30;51335;51.148;6.950;2023-07-28T10:02:15;23.23;85.22
64858;SHT30;51335;51.148;6.950;2023-07-28T10:02:46;23.01;85.22
64858;SHT30;51335;51.148;6.950;2023-07-28T10:03:17;22.94;86.43
64858;SHT30;51335;51.148;6.950;2023-07-28T10:03:47;23.11;86.14
64858;SHT30;51335;51.148;6.950;2023-07-28T10:04:18;22.83;85.79
64858;SHT30;51335;51.148;6.950;2023-07-28T10:04:48;22.87;86.18
64858;SHT30;51335;51.148;6.950;2023-07-28T10:05:19;22.79;85.56
64858;SHT30;51335;51.148;6.950;2023-07-28T10:05:49;23.09;85.40
64858;SHT30;51335;51.148;6.950;2023-07-28T10:06:20;23.25;85.10
64858;SHT30;51335;51.148;6.950;2023-07-28T10:06:52;23.26;84.95
64858;SHT30;51335;51.148;6.950;2023-07-28T10:07:24;23.46;84.95
64858;SHT30;51335;51.148;6.950;2023-07-28T10:07:55;23.52;85.12
64858;SHT30;51335;51.148;6.950;2023-07-28T10:08:26;23.62;84.89